Time;durP1;ratioP1;P1;durP2;ratioP2;P2;SDS_P1;SDS_P2;PMS_P1;PMS_P2;Temp;Humidity;BMP_temperature;BMP_pressure;BME280_temperature;BME280_humidity;BME280_pressure;Samples;Min_cycle;Max_cycle;Signal;HPM_P1;HPM_P2
2022/05/22 00:00:57;;;;;;;10.05;6.43;;;;;;;17.49;60.45;98850.34;4936398;29;20456;-90
2022/05/22 00:03:23;;;;;;;7.88;5.38;;;;;;;17.46;60.47;98858.38;4936876;29;20031;-90
2022/05/22 00:05:51;;;;;;;9.55;5.60;;;;;;;17.38;60.66;98852.63;4952456;29;20027;-88
2022/05/22 00:08:17;;;;;;;12.25;6.50;;;;;;;17.46;60.27;98867.31;4936695;29;20031;-90
2022/05/22 00:10:42;;;;;;;8.48;4.90;;;;;;;17.28;60.46;98844.81;4936027;29;20050;-90
2022/05/22 00:13:08;;;;;;;14.23;5.88;;;;;;;17.32;60.36;98858.56;4979703;28;20038;-90
2022/05/22 00:15:33;;;;;;;9.82;5.82;;;;;;;17.42;60.17;98863.66;4959405;28;20527;-91
2022/05/22 00:17:59;;;;;;;10.20;5.82;;;;;;;17.50;59.66;98862.03;4959545;28;20404;-89
2022/05/22 00:20:24;;;;;;;12.18;6.05;;;;;;;17.46;59.92;98856.44;4959454;28;20037;-89
2022/05/22 00:22:50;;;;;;;10.25;6.43;;;;;;;17.33;60.48;98841.94;4975831;28;20434;-89
2022/05/22 00:25:15;;;;;;;27.80;6.97;;;;;;;17.34;60.35;98850.88;4959476;28;20030;-89
2022/05/22 00:27:41;;;;;;;12.70;6.88;;;;;;;17.37;60.39;98845.59;4975945;28;20451;-89
2022/05/22 00:30:08;;;;;;;11.10;7.45;;;;;;;17.33;60.43;98844.66;4959390;28;20408;-89
2022/05/22 00:32:33;;;;;;;11.18;6.47;;;;;;;17.28;60.80;98846.75;4975658;28;20041;-90
2022/05/22 00:34:59;;;;;;;13.25;6.20;;;;;;;17.31;61.06;98849.63;4959426;28;20424;-89
2022/05/22 00:37:24;;;;;;;11.00;5.72;;;;;;;17.32;61.13;98853.13;4959493;28;20665;-89
2022/05/22 00:39:50;;;;;;;11.98;7.60;;;;;;;17.34;60.85;98840.78;4961861;28;20058;-90
2022/05/22 00:42:18;;;;;;;10.02;5.97;;;;;;;17.46;60.50;98844.75;4963231;28;20056;-90
2022/05/22 00:44:43;;;;;;;13.73;7.55;;;;;;;17.47;60.69;98855.31;4963668;28;20049;-90
2022/05/22 00:47:09;;;;;;;8.65;5.68;;;;;;;17.35;60.65;98830.72;4963536;28;20030;-89
2022/05/22 00:49:35;;;;;;;8.55;5.20;;;;;;;17.41;60.62;98839.47;4980101;28;20194;-89
2022/05/22 00:52:15;;;;;;;15.90;6.28;;;;;;;17.43;60.43;98832.59;4993979;28;20054;-96
2022/05/22 00:55:06;;;;;;;8.45;5.22;;;;;;;17.41;60.73;98812.25;4999781;28;20106;-96
2022/05/22 00:58:03;;;;;;;9.90;5.50;;;;;;;17.46;60.84;98810.16;5016516;28;20058;-96
2022/05/22 01:00:31;;;;;;;14.65;6.22;;;;;;;17.63;60.46;98828.34;4975428;29;20054;-96
2022/05/22 01:05:42;;;;;;;16.58;6.97;;;;;;;17.60;60.54;98818.13;4944792;29;20061;-90
2022/05/22 01:08:07;;;;;;;12.95;5.75;;;;;;;17.84;60.20;98836.56;4939362;29;20031;-90
2022/05/22 01:10:35;;;;;;;9.13;5.40;;;;;;;17.76;61.01;98840.94;4939469;29;20469;-90
2022/05/22 01:13:01;;;;;;;11.38;6.05;;;;;;;17.66;60.75;98824.97;4939801;29;20040;-90
2022/05/22 01:15:26;;;;;;;8.15;5.47;;;;;;;17.83;60.66;98847.81;4923728;29;20402;-90
2022/05/22 01:17:53;;;;;;;8.77;5.65;;;;;;;17.88;60.16;98842.16;4939337;29;20042;-90
2022/05/22 01:20:19;;;;;;;9.10;5.85;;;;;;;17.85;60.04;98834.66;4939475;29;20193;-90
2022/05/22 01:22:44;;;;;;;19.60;5.95;;;;;;;17.88;60.51;98847.59;4939721;29;20038;-91
2022/05/22 01:25:10;;;;;;;12.38;5.90;;;;;;;17.79;60.87;98839.47;4939370;29;20039;-91
2022/05/22 01:27:36;;;;;;;11.70;5.47;;;;;;;17.74;60.88;98826.03;4941522;29;20031;-96
2022/05/22 01:30:06;;;;;;;11.07;5.88;;;;;;;17.95;60.92;98843.25;4952257;29;20031;-96
2022/05/22 01:32:33;;;;;;;10.82;6.25;;;;;;;17.95;60.77;98837.78;4992191;28;20041;-95
2022/05/22 01:35:00;;;;;;;10.07;5.38;;;;;;;18.00;60.66;98830.56;4976153;28;20034;-93
2022/05/22 01:37:35;;;;;;;12.52;5.50;;;;;;;18.02;60.50;98831.03;4994255;28;20034;-96
2022/05/22 01:40:03;;;;;;;8.70;5.55;;;;;;;18.07;60.62;98817.97;4978662;28;20022;-95
2022/05/22 01:42:31;;;;;;;12.98;5.90;;;;;;;18.12;60.34;98820.53;4976911;28;20109;-95
2022/05/22 01:45:00;;;;;;;11.60;5.07;;;;;;;17.96;60.49;98814.06;4992260;28;20032;-95
2022/05/22 01:47:26;;;;;;;8.63;5.72;;;;;;;17.92;60.96;98822.09;4975425;28;20030;-94
2022/05/22 01:49:52;;;;;;;13.10;5.38;;;;;;;17.87;61.45;98822.31;4976386;28;20033;-95
2022/05/22 01:52:17;;;;;;;12.50;5.88;;;;;;;17.90;61.35;98818.13;4975683;28;20026;-95
2022/05/22 01:54:44;;;;;;;8.45;5.40;;;;;;;17.98;61.04;98828.16;4975112;28;20053;-95
2022/05/22 01:57:09;;;;;;;8.77;5.93;;;;;;;18.10;60.55;98833.69;4977680;28;20042;-89
2022/05/22 01:59:35;;;;;;;10.30;5.50;;;;;;;18.09;60.75;98818.44;4978297;28;20500;-89
2022/05/22 02:02:00;;;;;;;11.23;5.50;;;;;;;18.20;60.81;98832.50;4961749;28;20034;-89
2022/05/22 02:04:26;;;;;;;8.43;5.65;;;;;;;18.20;61.05;98837.94;4961814;28;20026;-89
2022/05/22 02:09:36;;;;;;;8.00;5.15;;;;;;;18.05;62.01;98838.53;4980561;28;20133;-89
2022/05/22 02:12:01;;;;;;;10.90;5.53;;;;;;;17.91;62.06;98827.91;4961586;28;20121;-89
2022/05/22 02:14:27;;;;;;;15.25;5.80;;;;;;;17.82;62.74;98829.81;4961554;28;20374;-89
2022/05/22 02:16:52;;;;;;;9.57;5.78;;;;;;;17.85;62.66;98831.94;4962363;28;20084;-93
2022/05/22 02:19:17;;;;;;;11.95;5.80;;;;;;;17.82;62.82;98838.78;4962611;28;20027;-93
2022/05/22 02:21:45;;;;;;;11.85;5.88;;;;;;;17.80;62.69;98827.44;4962845;28;20455;-94
2022/05/22 02:24:10;;;;;;;10.07;6.00;;;;;;;17.84;63.18;98839.28;4962872;28;20418;-94
2022/05/22 02:26:36;;;;;;;11.15;6.28;;;;;;;17.78;62.55;98821.50;4962255;28;20030;-93
2022/05/22 02:29:02;;;;;;;9.10;5.30;;;;;;;17.85;62.79;98823.78;4962222;28;20027;-92
2022/05/22 02:31:27;;;;;;;8.40;4.07;;;;;;;18.00;61.37;98828.63;4962666;28;20061;-94
2022/05/22 02:33:53;;;;;;;9.65;4.47;;;;;;;18.18;61.11;98832.03;4962525;28;20400;-94
2022/05/22 02:36:18;;;;;;;8.15;3.75;;;;;;;18.20;60.33;98816.16;4963527;28;20027;-93
2022/05/22 02:38:44;;;;;;;5.78;3.70;;;;;;;18.37;59.95;98840.53;4962320;28;20373;-93
2022/05/22 02:41:15;;;;;;;10.18;4.03;;;;;;;18.41;60.89;98839.84;4962419;28;20023;-93
2022/05/22 02:43:40;;;;;;;11.70;4.97;;;;;;;18.40;60.87;98852.69;4962871;28;20058;-94
2022/05/22 02:46:15;;;;;;;5.63;3.97;;;;;;;18.55;59.72;98860.25;4962219;28;20034;-93
2022/05/22 02:48:41;;;;;;;8.57;3.90;;;;;;;18.49;60.29;98850.69;4962600;28;20018;-94
2022/05/22 02:51:11;;;;;;;9.60;3.83;;;;;;;18.56;59.65;98850.94;4962064;28;20030;-93
2022/05/22 02:53:36;;;;;;;6.68;3.38;;;;;;;18.52;59.35;98835.59;4978115;28;20037;-93
2022/05/22 02:56:12;;;;;;;11.88;3.70;;;;;;;18.74;59.13;98856.25;4962416;28;20390;-94
2022/05/22 02:58:37;;;;;;;6.68;3.00;;;;;;;18.67;57.85;98836.91;4994454;28;20037;-94
2022/05/22 03:01:03;;;;;;;7.22;3.17;;;;;;;18.92;57.47;98854.16;4961980;28;20022;-92
2022/05/22 03:03:29;;;;;;;10.07;3.58;;;;;;;18.89;58.23;98854.84;4961897;28;20030;-93
2022/05/22 03:08:39;;;;;;;6.60;4.05;;;;;;;18.80;59.03;98856.84;4980312;28;20117;-93
2022/05/22 03:11:04;;;;;;;5.30;3.70;;;;;;;18.82;58.67;98863.56;4961775;28;20027;-92
2022/05/22 03:13:30;;;;;;;8.88;3.42;;;;;;;18.75;58.78;98860.56;4961535;28;20030;-92
2022/05/22 03:15:55;;;;;;;8.48;3.85;;;;;;;18.74;59.20;98864.44;4961394;28;20085;-92
2022/05/22 03:18:21;;;;;;;6.03;3.92;;;;;;;18.74;59.23;98876.13;4962432;28;20015;-92
2022/05/22 03:20:46;;;;;;;9.63;3.85;;;;;;;18.66;59.06;98868.03;4961486;28;20026;-92
2022/05/22 03:23:13;;;;;;;12.05;4.82;;;;;;;18.73;59.31;98881.91;4961325;28;20153;-94
2022/05/22 03:25:38;;;;;;;8.82;4.07;;;;;;;18.78;59.26;98874.38;4961566;28;20113;-93
2022/05/22 03:28:04;;;;;;;7.30;3.80;;;;;;;18.63;59.17;98865.97;4961741;28;20492;-92
2022/05/22 03:30:30;;;;;;;12.15;4.18;;;;;;;18.70;58.96;98875.22;4961442;28;20157;-93
2022/05/22 03:32:55;;;;;;;9.10;4.10;;;;;;;18.71;59.27;98874.06;4961659;28;20097;-92
2022/05/22 03:35:21;;;;;;;15.25;4.90;;;;;;;18.66;59.46;98866.09;4961075;28;20485;-92
2022/05/22 03:37:46;;;;;;;7.05;4.03;;;;;;;18.56;59.98;98870.03;4961340;28;20129;-93
2022/05/22 03:40:13;;;;;;;8.52;4.22;;;;;;;18.48;60.47;98864.66;4961249;28;20026;-93
2022/05/22 03:42:38;;;;;;;11.65;3.90;;;;;;;18.41;60.59;98869.81;4961177;28;20073;-92
2022/05/22 03:45:05;;;;;;;11.95;5.20;;;;;;;18.39;61.31;98878.34;4961077;28;20073;-92
2022/05/22 03:47:30;;;;;;;12.55;4.57;;;;;;;18.36;61.42;98879.81;4961053;28;20489;-93
2022/05/22 03:49:56;;;;;;;8.25;4.53;;;;;;;18.37;61.33;98881.41;4961260;28;20033;-93
2022/05/22 03:52:21;;;;;;;9.07;4.25;;;;;;;18.47;61.46;98893.03;4961202;28;20034;-94
2022/05/22 03:54:47;;;;;;;7.75;4.28;;;;;;;18.32;61.73;98881.63;4960883;28;20062;-93
2022/05/22 03:57:12;;;;;;;8.57;4.57;;;;;;;18.49;61.32;98897.03;4960720;28;20054;-92
2022/05/22 03:59:39;;;;;;;10.50;4.47;;;;;;;18.43;61.08;98879.28;4961020;28;20148;-93
2022/05/22 04:02:07;;;;;;;6.97;4.45;;;;;;;18.58;61.34;98884.13;4960650;28;20022;-92
2022/05/22 04:04:33;;;;;;;9.35;4.30;;;;;;;18.60;60.67;98874.81;4960840;28;20082;-92
2022/05/22 04:06:58;;;;;;;7.43;3.53;;;;;;;18.66;59.23;98877.00;4961267;28;20053;-94
2022/05/22 04:09:27;;;;;;;10.75;4.85;;;;;;;18.83;59.86;98881.53;4960946;28;20026;-93
2022/05/22 04:11:52;;;;;;;7.90;3.95;;;;;;;18.84;59.54;98877.66;4961011;28;20034;-93
2022/05/22 04:14:18;;;;;;;13.00;4.20;;;;;;;18.96;59.06;98885.09;4959600;28;20527;-93
2022/05/22 04:16:44;;;;;;;15.48;4.50;;;;;;;19.03;58.57;98887.28;4960683;28;20030;-93
2022/05/22 04:19:10;;;;;;;6.32;2.90;;;;;;;19.08;55.77;98884.34;4960745;28;20113;-94
2022/05/22 04:21:38;;;;;;;9.00;3.10;;;;;;;19.34;54.63;98911.34;4960807;28;20168;-94
2022/05/22 04:26:48;;;;;;;5.88;2.38;;;;;;;19.71;52.35;98906.75;4979466;28;20089;-92
2022/05/22 04:29:13;;;;;;;7.97;2.17;;;;;;;19.81;50.69;98893.81;4960876;28;20019;-95
2022/05/22 04:31:39;;;;;;;6.20;2.22;;;;;;;19.95;50.28;98895.03;4960739;28;20488;-94
2022/05/22 04:34:04;;;;;;;6.20;2.25;;;;;;;20.13;49.95;98900.25;4960450;28;20503;-93
2022/05/22 04:36:30;;;;;;;8.75;2.28;;;;;;;20.12;50.49;98883.06;4960651;28;20035;-93
2022/05/22 04:38:55;;;;;;;3.83;2.20;;;;;;;20.19;50.71;98872.34;4976729;28;20034;-93
2022/05/22 04:41:21;;;;;;;6.13;1.90;;;;;;;20.30;49.40;98874.63;4976340;28;20456;-94
2022/05/22 04:43:47;;;;;;;6.95;2.38;;;;;;;20.35;50.19;98877.88;4963314;28;20061;-94
2022/05/22 04:46:12;;;;;;;7.20;2.10;;;;;;;20.42;49.36;98871.03;4966364;28;20037;-94
2022/05/22 04:48:38;;;;;;;5.80;2.30;;;;;;;20.50;49.17;98868.19;4977266;28;20365;-94
2022/05/22 04:51:03;;;;;;;7.28;2.50;;;;;;;20.51;49.04;98858.81;4976853;28;20484;-94
2022/05/22 04:53:29;;;;;;;6.15;2.20;;;;;;;20.68;48.65;98873.38;4961052;28;20061;-93
2022/05/22 04:55:54;;;;;;;5.47;2.53;;;;;;;20.64;48.30;98859.59;4959880;28;20043;-92
2022/05/22 04:58:20;;;;;;;5.75;2.28;;;;;;;20.70;48.14;98863.66;4959652;28;20033;-93
2022/05/22 05:00:46;;;;;;;4.30;2.10;;;;;;;20.86;47.95;98880.16;4975294;28;20057;-94
2022/05/22 05:03:12;;;;;;;6.10;1.73;;;;;;;20.89;45.74;98871.22;4976193;28;20117;-93
2022/05/22 05:05:37;;;;;;;34.08;6.13;;;;;;;20.98;46.46;98871.88;4959950;28;20094;-92
2022/05/22 05:08:03;;;;;;;13.35;2.22;;;;;;;21.01;45.47;98867.63;4975258;28;20022;-93
2022/05/22 05:10:28;;;;;;;8.00;2.05;;;;;;;21.10;45.01;98868.25;4976221;28;20468;-95
2022/05/22 05:12:54;;;;;;;7.65;2.00;;;;;;;21.18;43.84;98861.03;4976810;28;20089;-93
2022/05/22 05:15:20;;;;;;;4.88;2.08;;;;;;;21.31;44.08;98853.53;4959747;28;20030;-92
2022/05/22 05:17:46;;;;;;;4.85;2.00;;;;;;;21.44;45.47;98860.56;4958866;28;20034;-92
2022/05/22 05:20:13;;;;;;;8.45;1.92;;;;;;;21.61;43.01;98875.03;4959107;28;20126;-94
2022/05/22 05:22:38;;;;;;;3.25;1.80;;;;;;;21.58;41.98;98865.56;4960028;28;20027;-93
2022/05/22 05:25:05;;;;;;;3.65;1.85;;;;;;;21.67;42.19;98871.69;4960034;28;20030;-93
2022/05/22 05:27:31;;;;;;;4.20;1.70;;;;;;;21.85;41.93;98887.75;4962388;28;20033;-93
2022/05/22 05:29:56;;;;;;;4.72;1.70;;;;;;;21.78;42.18;98864.50;4962128;28;20030;-94
2022/05/22 05:32:22;;;;;;;4.88;1.95;;;;;;;21.83;42.07;98888.13;4962234;28;20023;-93
2022/05/22 05:34:54;;;;;;;6.25;1.77;;;;;;;21.86;41.39;98884.66;4977945;28;20026;-94
2022/05/22 05:37:19;;;;;;;5.65;1.88;;;;;;;21.92;41.10;98891.44;4963061;28;20030;-93
2022/05/22 05:39:45;;;;;;;5.03;1.63;;;;;;;21.95;40.82;98884.44;4979268;28;20173;-95
2022/05/22 05:42:10;;;;;;;4.32;1.60;;;;;;;21.99;40.07;98879.84;4978798;28;20064;-93
2022/05/22 05:44:36;;;;;;;3.90;1.95;;;;;;;22.02;40.31;98867.38;4962272;28;20031;-96
2022/05/22 05:47:02;;;;;;;7.35;1.90;;;;;;;22.11;40.41;98866.03;4994103;28;20050;-94
2022/05/22 05:49:28;;;;;;;7.80;2.55;;;;;;;22.22;41.14;98877.22;4978344;28;20030;-91
2022/05/22 05:51:54;;;;;;;4.10;1.60;;;;;;;22.32;40.91;98881.38;4978703;28;20026;-93
2022/05/22 05:54:19;;;;;;;6.10;2.03;;;;;;;22.38;40.20;98883.47;4978112;28;20088;-93
2022/05/22 05:56:46;;;;;;;6.03;1.80;;;;;;;22.37;39.95;98895.63;4926175;28;1535762;-94
2022/05/22 05:59:12;;;;;;;3.83;1.48;;;;;;;22.48;39.08;98893.09;4995153;28;20042;-93
2022/05/22 06:01:38;;;;;;;7.65;1.70;;;;;;;22.37;39.04;98870.13;4979268;28;20034;-93
2022/05/22 06:04:04;;;;;;;3.35;1.55;;;;;;;22.40;39.19;98883.91;4963300;28;20542;-93
2022/05/22 06:06:30;;;;;;;3.38;1.60;;;;;;;22.55;39.04;98885.00;5011844;28;20026;-93
2022/05/22 06:08:57;;;;;;;5.30;1.98;;;;;;;22.61;38.94;98888.25;4979166;28;20040;-93
2022/05/22 06:11:23;;;;;;;9.32;2.15;;;;;;;22.69;37.29;98886.47;4963148;28;20030;-93
2022/05/22 06:13:48;;;;;;;6.18;1.70;;;;;;;22.77;37.12;98872.53;4978787;28;20053;-94
2022/05/22 06:16:14;;;;;;;4.00;1.50;;;;;;;22.92;36.91;98881.03;4978996;28;20033;-93
2022/05/22 06:18:40;;;;;;;5.35;1.60;;;;;;;22.98;36.68;98885.84;4963035;28;20034;-94
2022/05/22 06:21:12;;;;;;;12.60;1.77;;;;;;;23.13;35.88;98875.94;4978759;28;20157;-94
2022/05/22 06:23:38;;;;;;;6.45;1.50;;;;;;;23.27;36.15;98885.63;4962786;28;20105;-90
2022/05/22 06:26:05;;;;;;;5.25;2.03;;;;;;;23.32;36.08;98880.59;4978022;28;20563;-89
2022/05/22 06:28:31;;;;;;;4.35;1.38;;;;;;;23.46;35.34;98888.31;4961762;28;20026;-90
2022/05/22 06:30:56;;;;;;;4.65;1.70;;;;;;;23.57;35.97;98886.53;4961817;28;20026;-89
2022/05/22 06:33:23;;;;;;;3.88;1.60;;;;;;;23.67;35.19;98887.88;4977581;28;20026;-89
2022/05/22 06:35:49;;;;;;;7.68;2.10;;;;;;;23.71;35.03;98879.69;4961522;28;20040;-90
2022/05/22 06:41:04;;;;;;;5.18;1.60;;;;;;;23.66;34.97;98879.97;4980377;28;20116;-90
2022/05/22 06:43:31;;;;;;;2.20;1.23;;;;;;;23.68;35.79;98896.91;4977315;28;20022;-90
2022/05/22 06:45:56;;;;;;;2.33;1.52;;;;;;;23.60;35.85;98896.78;4962005;28;20023;-90
2022/05/22 06:48:22;;;;;;;3.60;1.80;;;;;;;23.46;35.71;98885.56;4961294;28;20133;-90
2022/05/22 06:50:47;;;;;;;3.70;1.50;;;;;;;23.40;35.54;98892.53;4961580;28;20034;-90
2022/05/22 06:53:13;;;;;;;6.85;1.98;;;;;;;23.27;35.86;98885.63;4961407;28;20026;-89
2022/05/22 06:55:40;;;;;;;3.13;1.60;;;;;;;23.33;35.89;98890.44;4992851;28;20050;-89
2022/05/22 06:58:06;;;;;;;7.03;1.70;;;;;;;23.42;36.09;98887.44;4961260;28;20117;-89
2022/05/22 07:00:32;;;;;;;6.70;1.50;;;;;;;23.56;35.96;98881.41;4977571;28;20045;-89
2022/05/22 07:02:58;;;;;;;7.22;1.70;;;;;;;23.72;35.07;98890.31;4977808;28;20156;-89
2022/05/22 07:05:23;;;;;;;7.38;1.40;;;;;;;23.64;34.44;98880.38;4993329;28;20117;-90
2022/05/22 07:07:49;;;;;;;8.45;1.27;;;;;;;23.60;33.71;98874.03;4960437;28;20141;-90
2022/05/22 07:10:16;;;;;;;7.70;1.42;;;;;;;23.57;33.67;98869.25;4976630;28;20030;-89
2022/05/22 07:12:41;;;;;;;9.32;1.60;;;;;;;23.52;33.98;98875.84;4960908;28;20539;-91
2022/05/22 07:15:07;;;;;;;6.85;1.40;;;;;;;23.36;33.12;98861.44;4960658;28;20054;-90
2022/05/22 07:17:34;;;;;;;5.10;1.67;;;;;;;23.52;33.55;98866.81;4960639;28;20444;-89
2022/05/22 07:20:00;;;;;;;4.35;1.50;;;;;;;23.41;33.16;98866.66;4977642;28;20030;-92
2022/05/22 07:22:26;;;;;;;6.50;1.65;;;;;;;23.44;33.46;98862.38;4976780;28;20031;-90
2022/05/22 07:24:52;;;;;;;4.97;1.50;;;;;;;23.55;32.94;98874.31;4977121;28;20053;-90
2022/05/22 07:27:19;;;;;;;15.00;1.67;;;;;;;23.64;32.62;98865.81;5009025;28;20435;-91
2022/05/22 07:29:45;;;;;;;4.85;1.40;;;;;;;23.65;32.35;98842.66;4960449;28;20449;-90
2022/05/22 07:32:10;;;;;;;6.80;1.60;;;;;;;23.78;32.58;98844.88;4960533;28;20061;-89
2022/05/22 07:34:36;;;;;;;9.07;1.60;;;;;;;23.88;32.59;98845.41;4959844;28;20077;-89
2022/05/22 07:37:04;;;;;;;4.05;1.40;;;;;;;23.82;32.99;98833.13;4960148;28;20109;-90
2022/05/22 07:39:29;;;;;;;4.45;1.40;;;;;;;24.00;33.09;98828.69;4976958;28;20064;-90
2022/05/22 07:41:55;;;;;;;8.27;1.60;;;;;;;24.16;33.12;98837.56;4976526;28;20030;-90
2022/05/22 07:44:21;;;;;;;5.80;1.40;;;;;;;24.39;32.38;98823.69;4960020;28;20025;-89
2022/05/22 07:46:47;;;;;;;3.78;1.38;;;;;;;24.56;32.89;98838.06;4976257;28;20038;-89
2022/05/22 07:50:16;;;;;;;3.42;1.33;;;;;;;24.52;32.66;98810.50;4975484;28;20138;-89
2022/05/22 07:52:05;;;;;;;2.65;1.30;;;;;;;24.62;32.00;98809.03;4978774;28;20030;-90
2022/05/22 07:54:37;;;;;;;4.28;1.30;;;;;;;24.61;31.79;98821.19;4961291;28;20030;-90
2022/05/22 07:57:03;;;;;;;5.47;1.50;;;;;;;24.56;31.05;98825.09;4960677;28;20480;-91
2022/05/22 07:59:34;;;;;;;7.93;1.77;;;;;;;24.50;31.08;98798.28;4960247;28;20503;-88
2022/05/22 08:02:00;;;;;;;4.80;1.42;;;;;;;24.44;31.25;98806.03;4977014;28;20113;-90
2022/05/22 08:04:27;;;;;;;5.60;1.20;;;;;;;24.41;30.75;98810.34;4976669;28;20065;-90
2022/05/22 08:06:53;;;;;;;5.95;1.90;;;;;;;24.38;31.02;98802.84;4992821;28;20477;-90
2022/05/22 08:09:22;;;;;;;7.32;1.40;;;;;;;24.39;31.34;98807.19;4976983;28;20034;-90
2022/05/22 08:11:49;;;;;;;4.22;1.30;;;;;;;24.45;31.51;98810.41;4994272;28;20026;-88
2022/05/22 08:14:15;;;;;;;3.22;1.10;;;;;;;24.54;31.41;98808.16;4976489;28;20072;-92
2022/05/22 08:16:45;;;;;;;5.47;1.40;;;;;;;24.68;31.94;98815.78;4976427;28;20465;-91
2022/05/22 08:19:12;;;;;;;13.65;1.70;;;;;;;24.57;31.97;98793.66;4992146;28;20122;-90
2022/05/22 08:21:39;;;;;;;4.25;1.70;;;;;;;24.56;31.73;98794.81;4991858;28;20097;-92
2022/05/22 08:24:05;;;;;;;5.80;1.48;;;;;;;24.64;30.51;98790.19;4976221;28;20031;-91
2022/05/22 08:26:30;;;;;;;5.28;1.58;;;;;;;24.64;29.52;98790.19;4959758;28;20033;-92
2022/05/22 08:28:56;;;;;;;7.07;1.38;;;;;;;24.69;30.18;98791.78;4959337;28;20121;-88
2022/05/22 08:31:22;;;;;;;3.63;1.10;;;;;;;24.64;29.89;98781.13;4975409;28;20117;-89
2022/05/22 08:33:48;;;;;;;3.42;1.30;;;;;;;24.83;29.81;98791.16;4975817;28;20061;-89
2022/05/22 08:36:15;;;;;;;3.78;1.30;;;;;;;24.90;30.48;98792.03;4990925;28;20053;-88
2022/05/22 08:38:42;;;;;;;2.83;1.50;;;;;;;24.86;29.34;98780.19;4990019;28;20062;-89
2022/05/22 08:41:13;;;;;;;8.05;1.48;;;;;;;24.81;29.50;98781.31;4975587;28;20032;-88
2022/05/22 08:43:47;;;;;;;3.50;1.50;;;;;;;24.64;30.21;98762.66;4992266;28;20511;-89
2022/05/22 08:46:16;;;;;;;2.42;1.20;;;;;;;24.65;29.73;98753.22;4960316;28;20030;-90
2022/05/22 08:48:49;;;;;;;5.00;1.20;;;;;;;24.47;29.16;98742.00;4975613;28;20034;-90
2022/05/22 08:51:23;;;;;;;3.33;1.40;;;;;;;24.63;29.33;98766.56;4959702;28;20037;-89
2022/05/22 08:53:52;;;;;;;7.10;1.30;;;;;;;24.67;29.76;98756.38;4976323;28;20045;-91
2022/05/22 08:59:11;;;;;;;7.38;1.40;;;;;;;24.52;28.54;98755.44;4979530;28;20126;-90
2022/05/22 09:01:41;;;;;;;9.23;1.40;;;;;;;24.43;28.57;98762.41;4978804;28;20124;-88
2022/05/22 09:04:35;;;;;;;3.00;1.10;;;;;;;24.63;28.67;98758.31;4996143;28;20087;-90
2022/05/22 09:07:08;;;;;;;3.35;1.25;;;;;;;24.61;29.15;98766.16;4965138;28;20026;-90
2022/05/22 09:09:35;;;;;;;6.95;1.40;;;;;;;24.59;29.37;98762.97;4995362;28;20026;-91
2022/05/22 09:12:09;;;;;;;5.43;1.45;;;;;;;24.63;29.46;98766.56;4962917;28;20404;-89
2022/05/22 09:14:42;;;;;;;5.97;1.27;;;;;;;24.53;29.66;98767.25;4995094;28;20404;-91
2022/05/22 09:17:10;;;;;;;3.97;1.40;;;;;;;24.56;30.28;98759.03;4994896;28;20444;-90
2022/05/22 09:19:37;;;;;;;5.28;1.50;;;;;;;24.62;30.79;98766.97;5011303;28;20034;-90
2022/05/22 09:22:47;;;;;;;3.88;1.45;;;;;;;24.53;30.31;98764.50;4994686;28;20142;-89
2022/05/22 09:26:10;;;;;;;4.40;1.50;;;;;;;24.41;31.26;98758.06;4955325;29;20477;-90
2022/05/22 09:29:06;;;;;;;2.03;1.20;;;;;;;24.17;31.74;98755.81;4955723;28;20472;-90
2022/05/22 09:32:04;;;;;;;6.75;1.30;;;;;;;23.97;31.80;98735.94;4941878;29;20027;-95
2022/05/22 09:34:29;;;;;;;5.07;1.50;;;;;;;24.16;31.76;98754.25;4935196;29;20043;-95
2022/05/22 09:37:16;;;;;;;3.80;1.50;;;;;;;24.15;32.67;98756.19;4961005;29;20133;-96
2022/05/22 09:40:15;;;;;;;4.50;1.30;;;;;;;24.06;32.45;98744.69;4961137;29;20042;-95
2022/05/22 09:42:46;;;;;;;4.72;1.17;;;;;;;23.96;32.82;98720.59;4960775;29;20031;-96
2022/05/22 09:45:27;;;;;;;4.55;1.40;;;;;;;24.23;32.87;98731.50;4964690;29;20031;-95
2022/05/22 09:48:29;;;;;;;4.47;1.70;;;;;;;24.33;33.31;98731.63;4961159;29;20127;-95
2022/05/22 09:51:03;;;;;;;4.60;1.38;;;;;;;24.44;32.74;98723.47;4944315;29;20109;-95
2022/05/22 09:53:47;;;;;;;6.97;1.40;;;;;;;24.36;32.72;98688.81;4963427;29;20074;-95
2022/05/22 09:56:24;;;;;;;6.45;1.30;;;;;;;24.58;32.59;98700.84;4995824;28;20519;-94
2022/05/22 09:59:01;;;;;;;5.55;1.50;;;;;;;24.81;31.94;98704.19;4970223;28;20034;-95
2022/05/22 10:01:32;;;;;;;5.10;1.55;;;;;;;24.79;31.92;98681.75;5002827;28;20145;-95
2022/05/22 10:04:09;;;;;;;6.90;1.50;;;;;;;25.08;31.69;98701.25;4983819;28;20049;-96
2022/05/22 10:06:41;;;;;;;2.55;1.20;;;;;;;25.10;30.76;98698.91;5013869;28;20042;-91
2022/05/22 10:09:24;;;;;;;;;;;;;;;25.22;30.46;98694.31;5011089;28;20041;-92
2022/05/22 10:12:33;;;;;;;5.60;1.48;;;;;;;25.19;30.06;98699.41;4992975;28;20379;-90
2022/05/22 10:15:02;;;;;;;2.88;1.30;;;;;;;25.12;29.54;98691.06;5010616;28;20038;-90
2022/05/22 10:17:50;;;;;;;9.63;1.40;;;;;;;25.03;30.45;98674.09;5010531;28;20085;-90
2022/05/22 10:20:19;;;;;;;14.02;1.73;;;;;;;25.15;30.48;98692.25;4995169;28;20527;-91
2022/05/22 10:23:06;;;;;;;3.95;1.42;;;;;;;25.06;29.54;98670.56;5010310;28;20034;-91
2022/05/22 10:25:55;;;;;;;7.93;1.65;;;;;;;25.13;29.38;98676.13;4977811;28;20026;-90
2022/05/22 10:28:22;;;;;;;9.52;1.73;;;;;;;25.26;29.46;98662.06;5005228;28;20092;-90
2022/05/22 10:31:01;;;;;;;4.35;1.35;;;;;;;25.47;28.96;98661.41;4961156;28;20133;-91
2022/05/22 10:33:34;;;;;;;3.92;1.30;;;;;;;25.61;28.35;98672.50;4994304;28;20030;-91
2022/05/22 10:36:04;;;;;;;6.50;1.67;;;;;;;25.76;28.60;98687.13;4993957;28;20030;-90
2022/05/22 10:38:56;;;;;;;11.05;1.50;;;;;;;25.77;29.14;98672.97;4993778;28;20065;-90
2022/05/22 10:44:12;;;;;;;4.10;1.50;;;;;;;25.98;28.69;98680.56;4981050;28;20065;-90
2022/05/22 10:46:51;;;;;;;4.78;1.50;;;;;;;26.00;28.48;98672.69;4992221;28;20149;-91
2022/05/22 10:49:18;;;;;;;5.00;1.63;;;;;;;25.94;28.26;98657.69;4961639;28;20022;-90
2022/05/22 10:51:57;;;;;;;3.75;1.40;;;;;;;25.86;28.54;98658.81;4961707;28;20412;-91
2022/05/22 10:54:25;;;;;;;7.72;1.50;;;;;;;25.85;28.47;98643.41;4980141;28;20506;-94
2022/05/22 10:56:51;;;;;;;4.03;1.30;;;;;;;26.03;28.91;98660.06;4981110;28;20059;-94
2022/05/22 10:59:21;;;;;;;3.85;1.33;;;;;;;25.87;27.75;98627.28;4983279;28;20019;-94
2022/05/22 11:02:00;;;;;;;2.33;1.20;;;;;;;25.99;26.76;98640.75;4966032;28;20035;-94
2022/05/22 11:04:38;;;;;;;10.55;1.58;;;;;;;26.13;27.39;98639.22;4982729;28;20037;-94
2022/05/22 11:07:07;;;;;;;4.90;1.35;;;;;;;26.25;28.06;98625.03;4981375;28;20121;-96
2022/05/22 11:09:50;;;;;;;6.60;1.30;;;;;;;26.29;26.24;98609.25;4984256;28;20035;-95
2022/05/22 11:12:28;;;;;;;2.25;1.13;;;;;;;26.60;25.08;98637.31;4984260;28;20165;-94
2022/05/22 11:15:27;;;;;;;6.15;1.20;;;;;;;26.41;23.64;98605.31;4998846;28;20481;-95
2022/05/22 11:18:30;;;;;;;4.47;1.10;;;;;;;26.69;24.41;98615.63;4978321;28;20030;-95
2022/05/22 11:21:22;;;;;;;6.80;1.40;;;;;;;26.92;23.70;98614.41;4988730;28;20026;-92
2022/05/22 11:24:10;;;;;;;6.25;1.40;;;;;;;26.99;22.80;98628.19;4974931;28;20062;-90
2022/05/22 11:27:08;;;;;;;5.32;1.33;;;;;;;27.09;22.01;98610.03;4948839;28;20550;-90
2022/05/22 11:30:02;;;;;;;7.18;1.33;;;;;;;27.17;21.68;98615.13;4949207;28;20041;-90
2022/05/22 11:32:51;;;;;;;5.68;1.15;;;;;;;27.26;22.42;98605.66;4956383;28;20041;-90
2022/05/22 11:35:38;;;;;;;14.20;1.45;;;;;;;27.26;21.10;98622.25;4972861;28;20461;-91
2022/05/22 11:38:25;;;;;;;4.63;1.35;;;;;;;27.21;21.66;98617.91;4972779;28;20039;-93
2022/05/22 11:41:02;;;;;;;5.88;1.70;;;;;;;27.23;21.31;98609.22;4988964;28;20027;-92
2022/05/22 11:43:48;;;;;;;9.43;1.50;;;;;;;27.36;21.36;98597.34;4940767;28;20134;-93
2022/05/22 11:46:26;;;;;;;3.58;1.20;;;;;;;27.38;21.60;98583.91;4973467;28;20027;-90
2022/05/22 11:49:16;;;;;;;6.07;1.42;;;;;;;27.46;21.76;98578.34;4956644;28;20035;-94
2022/05/22 11:51:51;;;;;;;8.25;1.50;;;;;;;27.50;20.39;98577.16;4973219;28;20516;-93
2022/05/22 11:54:41;;;;;;;8.55;1.48;;;;;;;27.54;19.18;98574.38;4995405;28;20034;-92
2022/05/22 11:57:25;;;;;;;6.65;1.33;;;;;;;27.55;18.78;98590.53;4995670;28;20052;-94
2022/05/22 12:00:12;;;;;;;13.60;1.50;;;;;;;27.43;18.59;98582.69;5009068;28;20076;-92
2022/05/22 12:02:56;;;;;;;4.68;0.90;;;;;;;27.45;18.49;98591.38;5009100;28;20030;-92
2022/05/22 12:05:24;;;;;;;7.15;1.00;;;;;;;27.58;18.26;98577.88;5008875;28;20022;-93